sensor_id;sensor_type;location;lat;lon;timestamp;P1;durP1;ratioP1;P2;durP2;ratioP2
84682;SDS011;74905;44.124;18.116;2024-03-02T00:00:21;140.95;;;56.47;;
84682;SDS011;74905;44.124;18.116;2024-03-02T00:02:48;146.40;;;55.42;;
84682;SDS011;74905;44.124;18.116;2024-03-02T00:05:15;153.00;;;59.20;;
84682;SDS011;74905;44.124;18.116;2024-03-02T00:07:44;139.27;;;54.83;;
84682;SDS011;74905;44.124;18.116;2024-03-02T00:10:19;147.50;;;57.08;;
84682;SDS011;74905;44.124;18.116;2024-03-02T00:12:48;152.13;;;55.97;;
84682;SDS011;74905;44.124;18.116;2024-03-02T00:18:23;146.73;;;56.47;;
84682;SDS011;74905;44.124;18.116;2024-03-02T00:20:54;135.93;;;52.78;;
84682;SDS011;74905;44.124;18.116;2024-03-02T00:23:24;116.85;;;49.75;;
84682;SDS011;74905;44.124;18.116;2024-03-02T00:25:53;125.50;;;50.17;;
84682;SDS011;74905;44.124;18.116;2024-03-02T00:28:20;127.82;;;48.55;;
84682;SDS011;74905;44.124;18.116;2024-03-02T00:30:51;82.93;;;35.38;;
84682;SDS011;74905;44.124;18.116;2024-03-02T00:33:33;71.80;;;30.25;;
84682;SDS011;74905;44.124;18.116;2024-03-02T00:35:59;90.85;;;38.72;;
84682;SDS011;74905;44.124;18.116;2024-03-02T00:38:26;102.22;;;41.22;;
84682;SDS011;74905;44.124;18.116;2024-03-02T00:40:52;83.88;;;37.75;;
84682;SDS011;74905;44.124;18.116;2024-03-02T00:46:02;79.68;;;33.33;;
84682;SDS011;74905;44.124;18.116;2024-03-02T00:48:27;83.45;;;35.40;;
84682;SDS011;74905;44.124;18.116;2024-03-02T00:50:56;85.43;;;36.58;;
84682;SDS011;74905;44.124;18.116;2024-03-02T00:53:22;78.55;;;34.67;;
84682;SDS011;74905;44.124;18.116;2024-03-02T00:55:52;84.68;;;36.20;;
84682;SDS011;74905;44.124;18.116;2024-03-02T00:58:18;86.43;;;36.83;;
84682;SDS011;74905;44.124;18.116;2024-03-02T01:00:44;92.28;;;36.08;;
84682;SDS011;74905;44.124;18.116;2024-03-02T01:03:09;89.00;;;36.80;;
84682;SDS011;74905;44.124;18.116;2024-03-02T01:05:36;76.72;;;34.15;;
84682;SDS011;74905;44.124;18.116;2024-03-02T01:08:01;86.55;;;36.38;;
84682;SDS011;74905;44.124;18.116;2024-03-02T01:10:27;105.13;;;38.53;;
84682;SDS011;74905;44.124;18.116;2024-03-02T01:12:53;95.15;;;40.15;;
84682;SDS011;74905;44.124;18.116;2024-03-02T01:15:18;109.13;;;42.75;;
84682;SDS011;74905;44.124;18.116;2024-03-02T01:17:44;122.40;;;44.15;;
84682;SDS011;74905;44.124;18.116;2024-03-02T01:20:10;109.60;;;42.55;;
84682;SDS011;74905;44.124;18.116;2024-03-02T01:22:36;112.38;;;45.15;;
84682;SDS011;74905;44.124;18.116;2024-03-02T01:25:02;110.35;;;44.55;;
84682;SDS011;74905;44.124;18.116;2024-03-02T01:27:28;108.25;;;40.78;;
84682;SDS011;74905;44.124;18.116;2024-03-02T01:29:54;92.80;;;38.72;;
84682;SDS011;74905;44.124;18.116;2024-03-02T01:32:20;90.88;;;36.30;;
84682;SDS011;74905;44.124;18.116;2024-03-02T01:34:45;84.75;;;35.58;;
84682;SDS011;74905;44.124;18.116;2024-03-02T01:37:11;89.45;;;36.40;;
84682;SDS011;74905;44.124;18.116;2024-03-02T01:39:37;80.22;;;35.40;;
84682;SDS011;74905;44.124;18.116;2024-03-02T01:42:02;83.93;;;36.38;;
84682;SDS011;74905;44.124;18.116;2024-03-02T01:44:28;83.90;;;35.88;;
84682;SDS011;74905;44.124;18.116;2024-03-02T01:46:54;78.35;;;33.78;;
84682;SDS011;74905;44.124;18.116;2024-03-02T01:49:19;73.68;;;31.88;;
84682;SDS011;74905;44.124;18.116;2024-03-02T01:51:45;67.28;;;32.67;;
84682;SDS011;74905;44.124;18.116;2024-03-02T01:54:11;80.53;;;33.80;;
84682;SDS011;74905;44.124;18.116;2024-03-02T01:56:36;71.13;;;31.70;;
84682;SDS011;74905;44.124;18.116;2024-03-02T01:59:02;74.30;;;29.77;;
84682;SDS011;74905;44.124;18.116;2024-03-02T02:01:28;72.20;;;32.75;;
84682;SDS011;74905;44.124;18.116;2024-03-02T02:03:54;77.35;;;33.05;;
84682;SDS011;74905;44.124;18.116;2024-03-02T02:06:20;74.05;;;32.95;;
84682;SDS011;74905;44.124;18.116;2024-03-02T02:08:46;72.15;;;32.58;;
84682;SDS011;74905;44.124;18.116;2024-03-02T02:11:14;81.57;;;33.45;;
84682;SDS011;74905;44.124;18.116;2024-03-02T02:13:40;73.72;;;30.65;;
84682;SDS011;74905;44.124;18.116;2024-03-02T02:16:06;69.93;;;29.67;;
84682;SDS011;74905;44.124;18.116;2024-03-02T02:18:33;68.32;;;29.55;;
84682;SDS011;74905;44.124;18.116;2024-03-02T02:20:59;72.00;;;32.08;;
84682;SDS011;74905;44.124;18.116;2024-03-02T02:23:24;83.78;;;36.38;;
84682;SDS011;74905;44.124;18.116;2024-03-02T02:25:50;72.63;;;31.75;;
84682;SDS011;74905;44.124;18.116;2024-03-02T02:28:15;75.60;;;31.80;;
84682;SDS011;74905;44.124;18.116;2024-03-02T02:30:41;69.40;;;29.83;;
84682;SDS011;74905;44.124;18.116;2024-03-02T02:33:08;74.65;;;31.80;;
84682;SDS011;74905;44.124;18.116;2024-03-02T02:35:34;60.58;;;27.30;;
84682;SDS011;74905;44.124;18.116;2024-03-02T02:38:00;60.55;;;26.33;;
84682;SDS011;74905;44.124;18.116;2024-03-02T02:40:26;61.15;;;29.65;;
84682;SDS011;74905;44.124;18.116;2024-03-02T02:42:52;65.80;;;29.42;;
84682;SDS011;74905;44.124;18.116;2024-03-02T02:45:18;59.33;;;28.73;;
84682;SDS011;74905;44.124;18.116;2024-03-02T02:47:44;66.22;;;28.17;;
84682;SDS011;74905;44.124;18.116;2024-03-02T02:50:11;64.68;;;28.67;;
84682;SDS011;74905;44.124;18.116;2024-03-02T02:52:38;64.50;;;26.65;;
84682;SDS011;74905;44.124;18.116;2024-03-02T02:55:05;60.33;;;25.58;;
84682;SDS011;74905;44.124;18.116;2024-03-02T02:57:33;67.50;;;26.75;;
84682;SDS011;74905;44.124;18.116;2024-03-02T03:00:13;67.88;;;28.25;;
84682;SDS011;74905;44.124;18.116;2024-03-02T03:02:43;60.45;;;27.95;;
84682;SDS011;74905;44.124;18.116;2024-03-02T03:05:11;61.15;;;25.83;;
84682;SDS011;74905;44.124;18.116;2024-03-02T03:07:39;57.63;;;26.25;;
84682;SDS011;74905;44.124;18.116;2024-03-02T03:10:06;58.80;;;26.73;;
84682;SDS011;74905;44.124;18.116;2024-03-02T03:12:33;65.43;;;29.20;;
84682;SDS011;74905;44.124;18.116;2024-03-02T03:14:59;73.03;;;35.35;;
84682;SDS011;74905;44.124;18.116;2024-03-02T03:17:25;68.25;;;30.17;;
84682;SDS011;74905;44.124;18.116;2024-03-02T03:19:52;54.83;;;27.35;;
84682;SDS011;74905;44.124;18.116;2024-03-02T03:22:18;59.67;;;27.70;;
84682;SDS011;74905;44.124;18.116;2024-03-02T03:24:44;58.60;;;27.52;;
84682;SDS011;74905;44.124;18.116;2024-03-02T03:27:09;65.97;;;28.67;;
84682;SDS011;74905;44.124;18.116;2024-03-02T03:29:36;65.57;;;28.13;;
84682;SDS011;74905;44.124;18.116;2024-03-02T03:32:02;63.03;;;27.63;;
84682;SDS011;74905;44.124;18.116;2024-03-02T03:34:32;58.33;;;26.75;;
84682;SDS011;74905;44.124;18.116;2024-03-02T03:36:58;57.58;;;27.33;;
84682;SDS011;74905;44.124;18.116;2024-03-02T03:39:23;65.40;;;28.25;;
84682;SDS011;74905;44.124;18.116;2024-03-02T03:41:49;63.20;;;26.40;;
84682;SDS011;74905;44.124;18.116;2024-03-02T03:44:14;60.28;;;26.17;;
84682;SDS011;74905;44.124;18.116;2024-03-02T03:46:40;59.63;;;24.73;;
84682;SDS011;74905;44.124;18.116;2024-03-02T03:49:05;48.47;;;24.15;;
84682;SDS011;74905;44.124;18.116;2024-03-02T03:51:31;54.63;;;23.33;;
84682;SDS011;74905;44.124;18.116;2024-03-02T03:53:57;57.17;;;24.60;;
84682;SDS011;74905;44.124;18.116;2024-03-02T03:56:22;52.05;;;24.73;;
84682;SDS011;74905;44.124;18.116;2024-03-02T03:58:48;55.95;;;23.40;;
84682;SDS011;74905;44.124;18.116;2024-03-02T04:01:13;59.20;;;24.60;;
84682;SDS011;74905;44.124;18.116;2024-03-02T04:03:39;49.72;;;24.05;;
84682;SDS011;74905;44.124;18.116;2024-03-02T04:06:04;53.83;;;22.65;;
84682;SDS011;74905;44.124;18.116;2024-03-02T04:10:59;50.95;;;23.40;;
84682;SDS011;74905;44.124;18.116;2024-03-02T04:13:24;52.85;;;24.35;;
84682;SDS011;74905;44.124;18.116;2024-03-02T04:15:50;54.60;;;24.15;;
84682;SDS011;74905;44.124;18.116;2024-03-02T04:18:16;55.90;;;24.38;;
84682;SDS011;74905;44.124;18.116;2024-03-02T04:20:41;59.03;;;24.63;;
84682;SDS011;74905;44.124;18.116;2024-03-02T04:23:07;56.50;;;24.60;;
84682;SDS011;74905;44.124;18.116;2024-03-02T04:25:33;56.80;;;26.02;;
84682;SDS011;74905;44.124;18.116;2024-03-02T04:27:58;60.35;;;27.05;;
84682;SDS011;74905;44.124;18.116;2024-03-02T04:30:24;63.38;;;27.27;;
84682;SDS011;74905;44.124;18.116;2024-03-02T04:32:50;64.95;;;29.00;;
84682;SDS011;74905;44.124;18.116;2024-03-02T04:35:16;61.40;;;26.92;;
84682;SDS011;74905;44.124;18.116;2024-03-02T04:37:41;61.15;;;27.85;;
84682;SDS011;74905;44.124;18.116;2024-03-02T04:40:07;58.10;;;25.77;;
84682;SDS011;74905;44.124;18.116;2024-03-02T04:42:34;65.47;;;28.00;;
84682;SDS011;74905;44.124;18.116;2024-03-02T04:45:00;61.55;;;26.35;;
84682;SDS011;74905;44.124;18.116;2024-03-02T04:47:26;61.50;;;27.20;;
84682;SDS011;74905;44.124;18.116;2024-03-02T04:49:51;55.60;;;26.27;;
84682;SDS011;74905;44.124;18.116;2024-03-02T04:52:17;56.47;;;26.30;;
84682;SDS011;74905;44.124;18.116;2024-03-02T04:54:43;64.32;;;26.77;;
84682;SDS011;74905;44.124;18.116;2024-03-02T04:57:27;63.70;;;26.05;;
84682;SDS011;74905;44.124;18.116;2024-03-02T04:59:53;53.58;;;24.83;;
84682;SDS011;74905;44.124;18.116;2024-03-02T05:02:18;50.28;;;25.08;;
84682;SDS011;74905;44.124;18.116;2024-03-02T05:04:44;59.80;;;27.73;;
84682;SDS011;74905;44.124;18.116;2024-03-02T05:07:10;56.33;;;27.13;;
84682;SDS011;74905;44.124;18.116;2024-03-02T05:09:35;54.63;;;24.80;;
84682;SDS011;74905;44.124;18.116;2024-03-02T05:12:01;51.95;;;24.10;;
84682;SDS011;74905;44.124;18.116;2024-03-02T05:14:45;45.88;;;22.27;;
84682;SDS011;74905;44.124;18.116;2024-03-02T05:17:11;55.45;;;25.35;;
84682;SDS011;74905;44.124;18.116;2024-03-02T05:19:36;52.85;;;25.42;;
84682;SDS011;74905;44.124;18.116;2024-03-02T05:22:02;61.83;;;28.23;;
84682;SDS011;74905;44.124;18.116;2024-03-02T05:24:28;86.40;;;33.22;;
84682;SDS011;74905;44.124;18.116;2024-03-02T05:26:54;71.15;;;30.58;;
84682;SDS011;74905;44.124;18.116;2024-03-02T05:29:19;56.13;;;23.90;;
84682;SDS011;74905;44.124;18.116;2024-03-02T05:31:46;55.40;;;27.20;;
84682;SDS011;74905;44.124;18.116;2024-03-02T05:34:11;55.22;;;21.90;;
84682;SDS011;74905;44.124;18.116;2024-03-02T05:36:37;44.70;;;19.83;;
84682;SDS011;74905;44.124;18.116;2024-03-02T05:39:04;43.47;;;21.05;;
84682;SDS011;74905;44.124;18.116;2024-03-02T05:41:31;48.63;;;20.77;;
84682;SDS011;74905;44.124;18.116;2024-03-02T05:43:57;43.58;;;18.13;;
84682;SDS011;74905;44.124;18.116;2024-03-02T05:46:22;38.55;;;16.45;;
84682;SDS011;74905;44.124;18.116;2024-03-02T05:48:48;35.35;;;16.52;;
84682;SDS011;74905;44.124;18.116;2024-03-02T05:51:14;33.47;;;16.20;;
84682;SDS011;74905;44.124;18.116;2024-03-02T05:53:39;40.17;;;17.77;;
84682;SDS011;74905;44.124;18.116;2024-03-02T05:56:05;41.58;;;19.48;;
84682;SDS011;74905;44.124;18.116;2024-03-02T05:58:31;43.92;;;19.85;;
84682;SDS011;74905;44.124;18.116;2024-03-02T06:01:15;50.08;;;21.98;;
84682;SDS011;74905;44.124;18.116;2024-03-02T06:03:43;50.92;;;21.17;;
84682;SDS011;74905;44.124;18.116;2024-03-02T06:06:08;62.20;;;25.48;;
84682;SDS011;74905;44.124;18.116;2024-03-02T06:08:34;57.22;;;26.15;;
84682;SDS011;74905;44.124;18.116;2024-03-02T06:11:00;63.53;;;28.10;;
84682;SDS011;74905;44.124;18.116;2024-03-02T06:13:26;61.22;;;26.95;;
84682;SDS011;74905;44.124;18.116;2024-03-02T06:15:51;66.20;;;26.70;;
84682;SDS011;74905;44.124;18.116;2024-03-02T06:18:18;58.80;;;27.70;;
84682;SDS011;74905;44.124;18.116;2024-03-02T06:20:43;69.57;;;30.83;;
84682;SDS011;74905;44.124;18.116;2024-03-02T06:23:09;59.13;;;28.25;;
84682;SDS011;74905;44.124;18.116;2024-03-02T06:25:34;58.40;;;26.45;;
84682;SDS011;74905;44.124;18.116;2024-03-02T06:28:00;39.75;;;20.23;;
84682;SDS011;74905;44.124;18.116;2024-03-02T06:30:25;36.25;;;16.63;;
84682;SDS011;74905;44.124;18.116;2024-03-02T06:32:51;33.42;;;17.42;;
84682;SDS011;74905;44.124;18.116;2024-03-02T06:35:17;38.15;;;18.55;;
84682;SDS011;74905;44.124;18.116;2024-03-02T06:37:42;50.88;;;23.63;;
84682;SDS011;74905;44.124;18.116;2024-03-02T06:40:08;47.30;;;20.85;;
84682;SDS011;74905;44.124;18.116;2024-03-02T06:42:34;48.17;;;20.90;;
84682;SDS011;74905;44.124;18.116;2024-03-02T06:45:00;49.33;;;21.23;;
84682;SDS011;74905;44.124;18.116;2024-03-02T06:47:27;47.58;;;21.02;;
84682;SDS011;74905;44.124;18.116;2024-03-02T06:49:52;45.97;;;20.17;;
84682;SDS011;74905;44.124;18.116;2024-03-02T06:52:18;42.50;;;19.10;;
84682;SDS011;74905;44.124;18.116;2024-03-02T06:54:44;41.28;;;18.88;;
84682;SDS011;74905;44.124;18.116;2024-03-02T06:57:09;35.25;;;16.52;;
84682;SDS011;74905;44.124;18.116;2024-03-02T06:59:35;41.72;;;16.83;;
84682;SDS011;74905;44.124;18.116;2024-03-02T07:02:00;49.58;;;16.52;;
84682;SDS011;74905;44.124;18.116;2024-03-02T07:04:27;49.65;;;15.98;;
84682;SDS011;74905;44.124;18.116;2024-03-02T07:06:52;41.63;;;15.00;;
84682;SDS011;74905;44.124;18.116;2024-03-02T07:09:18;37.38;;;13.82;;
84682;SDS011;74905;44.124;18.116;2024-03-02T07:11:47;39.42;;;14.32;;
84682;SDS011;74905;44.124;18.116;2024-03-02T07:14:13;31.83;;;13.90;;
84682;SDS011;74905;44.124;18.116;2024-03-02T07:16:39;39.15;;;14.95;;
84682;SDS011;74905;44.124;18.116;2024-03-02T07:19:05;36.33;;;15.35;;
84682;SDS011;74905;44.124;18.116;2024-03-02T07:21:31;36.75;;;15.23;;
84682;SDS011;74905;44.124;18.116;2024-03-02T07:23:58;34.58;;;14.13;;
84682;SDS011;74905;44.124;18.116;2024-03-02T07:26:24;36.47;;;14.82;;
84682;SDS011;74905;44.124;18.116;2024-03-02T07:28:50;38.40;;;13.73;;
84682;SDS011;74905;44.124;18.116;2024-03-02T07:31:16;33.17;;;14.50;;
84682;SDS011;74905;44.124;18.116;2024-03-02T07:33:45;40.55;;;17.05;;
84682;SDS011;74905;44.124;18.116;2024-03-02T07:36:11;36.63;;;17.27;;
84682;SDS011;74905;44.124;18.116;2024-03-02T07:38:37;39.85;;;16.35;;
84682;SDS011;74905;44.124;18.116;2024-03-02T07:41:03;32.78;;;14.52;;
84682;SDS011;74905;44.124;18.116;2024-03-02T07:43:29;33.97;;;15.18;;
84682;SDS011;74905;44.124;18.116;2024-03-02T07:45:56;32.92;;;13.05;;
84682;SDS011;74905;44.124;18.116;2024-03-02T07:48:22;36.83;;;13.00;;
84682;SDS011;74905;44.124;18.116;2024-03-02T07:50:48;34.38;;;13.73;;
84682;SDS011;74905;44.124;18.116;2024-03-02T07:53:13;36.15;;;13.95;;
84682;SDS011;74905;44.124;18.116;2024-03-02T07:55:39;34.53;;;13.05;;
84682;SDS011;74905;44.124;18.116;2024-03-02T07:58:06;33.92;;;13.25;;
84682;SDS011;74905;44.124;18.116;2024-03-02T08:00:32;35.80;;;14.43;;
84682;SDS011;74905;44.124;18.116;2024-03-02T08:02:57;29.77;;;12.73;;
84682;SDS011;74905;44.124;18.116;2024-03-02T08:05:23;32.35;;;13.80;;
84682;SDS011;74905;44.124;18.116;2024-03-02T08:07:49;24.92;;;11.98;;
84682;SDS011;74905;44.124;18.116;2024-03-02T08:10:17;22.35;;;12.35;;
84682;SDS011;74905;44.124;18.116;2024-03-02T08:12:44;21.75;;;12.52;;
84682;SDS011;74905;44.124;18.116;2024-03-02T08:15:09;28.77;;;13.25;;
84682;SDS011;74905;44.124;18.116;2024-03-02T08:17:35;23.73;;;12.73;;
84682;SDS011;74905;44.124;18.116;2024-03-02T08:20:01;23.23;;;12.82;;
84682;SDS011;74905;44.124;18.116;2024-03-02T08:22:27;25.55;;;13.32;;
84682;SDS011;74905;44.124;18.116;2024-03-02T08:24:53;25.38;;;12.68;;
84682;SDS011;74905;44.124;18.116;2024-03-02T08:27:19;28.02;;;12.80;;
84682;SDS011;74905;44.124;18.116;2024-03-02T08:29:45;25.27;;;12.75;;
84682;SDS011;74905;44.124;18.116;2024-03-02T08:32:11;22.13;;;12.32;;
84682;SDS011;74905;44.124;18.116;2024-03-02T08:34:36;22.42;;;10.90;;
84682;SDS011;74905;44.124;18.116;2024-03-02T08:37:02;19.00;;;7.82;;
84682;SDS011;74905;44.124;18.116;2024-03-02T08:39:27;18.38;;;9.00;;
84682;SDS011;74905;44.124;18.116;2024-03-02T08:41:53;19.00;;;9.63;;
84682;SDS011;74905;44.124;18.116;2024-03-02T08:44:19;17.67;;;9.32;;
84682;SDS011;74905;44.124;18.116;2024-03-02T08:46:45;19.67;;;9.82;;
84682;SDS011;74905;44.124;18.116;2024-03-02T08:49:11;19.48;;;9.70;;
84682;SDS011;74905;44.124;18.116;2024-03-02T08:51:37;20.83;;;9.68;;
84682;SDS011;74905;44.124;18.116;2024-03-02T08:54:03;16.75;;;9.15;;
84682;SDS011;74905;44.124;18.116;2024-03-02T08:56:30;19.23;;;9.98;;
84682;SDS011;74905;44.124;18.116;2024-03-02T08:58:56;18.55;;;9.90;;
84682;SDS011;74905;44.124;18.116;2024-03-02T09:01:22;21.92;;;10.10;;
84682;SDS011;74905;44.124;18.116;2024-03-02T09:03:48;20.63;;;10.95;;
84682;SDS011;74905;44.124;18.116;2024-03-02T09:06:14;14.07;;;8.63;;
84682;SDS011;74905;44.124;18.116;2024-03-02T09:08:42;16.85;;;9.35;;
84682;SDS011;74905;44.124;18.116;2024-03-02T09:11:08;14.75;;;8.55;;
84682;SDS011;74905;44.124;18.116;2024-03-02T09:13:35;15.07;;;8.10;;
84682;SDS011;74905;44.124;18.116;2024-03-02T09:16:02;14.52;;;7.85;;
84682;SDS011;74905;44.124;18.116;2024-03-02T09:18:29;10.93;;;6.32;;
84682;SDS011;74905;44.124;18.116;2024-03-02T09:20:54;11.18;;;5.60;;
84682;SDS011;74905;44.124;18.116;2024-03-02T09:23:20;12.15;;;6.53;;
84682;SDS011;74905;44.124;18.116;2024-03-02T09:25:46;12.95;;;6.53;;
84682;SDS011;74905;44.124;18.116;2024-03-02T09:28:12;13.88;;;6.00;;
84682;SDS011;74905;44.124;18.116;2024-03-02T09:30:37;11.88;;;5.30;;
84682;SDS011;74905;44.124;18.116;2024-03-02T09:33:03;8.05;;;5.25;;
84682;SDS011;74905;44.124;18.116;2024-03-02T09:35:29;9.80;;;4.50;;
84682;SDS011;74905;44.124;18.116;2024-03-02T09:37:55;10.25;;;4.70;;
84682;SDS011;74905;44.124;18.116;2024-03-02T09:40:24;10.48;;;4.82;;
84682;SDS011;74905;44.124;18.116;2024-03-02T09:42:50;9.95;;;5.00;;
84682;SDS011;74905;44.124;18.116;2024-03-02T09:45:22;12.45;;;4.65;;
84682;SDS011;74905;44.124;18.116;2024-03-02T09:47:49;11.02;;;4.53;;
84682;SDS011;74905;44.124;18.116;2024-03-02T09:50:15;8.85;;;4.53;;
84682;SDS011;74905;44.124;18.116;2024-03-02T09:52:47;11.80;;;5.88;;
84682;SDS011;74905;44.124;18.116;2024-03-02T09:55:13;9.93;;;5.65;;
84682;SDS011;74905;44.124;18.116;2024-03-02T09:57:41;11.40;;;5.18;;
84682;SDS011;74905;44.124;18.116;2024-03-02T10:00:07;14.63;;;7.00;;
84682;SDS011;74905;44.124;18.116;2024-03-02T10:02:34;10.25;;;4.70;;
84682;SDS011;74905;44.124;18.116;2024-03-02T10:04:59;11.68;;;4.13;;
84682;SDS011;74905;44.124;18.116;2024-03-02T10:07:25;11.85;;;4.90;;
84682;SDS011;74905;44.124;18.116;2024-03-02T10:09:50;10.05;;;4.40;;
84682;SDS011;74905;44.124;18.116;2024-03-02T10:12:17;9.23;;;3.80;;
84682;SDS011;74905;44.124;18.116;2024-03-02T10:14:43;6.32;;;3.60;;
84682;SDS011;74905;44.124;18.116;2024-03-02T10:17:11;5.40;;;3.30;;
84682;SDS011;74905;44.124;18.116;2024-03-02T10:19:38;10.27;;;5.47;;
84682;SDS011;74905;44.124;18.116;2024-03-02T10:22:06;16.70;;;7.45;;
84682;SDS011;74905;44.124;18.116;2024-03-02T10:24:40;11.65;;;3.67;;
84682;SDS011;74905;44.124;18.116;2024-03-02T10:27:10;10.60;;;3.92;;
84682;SDS011;74905;44.124;18.116;2024-03-02T10:29:41;6.03;;;2.53;;
84682;SDS011;74905;44.124;18.116;2024-03-02T10:32:10;5.78;;;2.63;;
84682;SDS011;74905;44.124;18.116;2024-03-02T10:34:39;7.63;;;3.03;;
84682;SDS011;74905;44.124;18.116;2024-03-02T10:37:06;6.20;;;2.90;;
84682;SDS011;74905;44.124;18.116;2024-03-02T10:39:34;9.77;;;2.78;;
84682;SDS011;74905;44.124;18.116;2024-03-02T10:42:01;7.20;;;2.95;;
84682;SDS011;74905;44.124;18.116;2024-03-02T10:44:28;6.05;;;3.00;;
84682;SDS011;74905;44.124;18.116;2024-03-02T10:46:55;5.28;;;2.97;;
84682;SDS011;74905;44.124;18.116;2024-03-02T10:49:22;6.72;;;3.00;;
84682;SDS011;74905;44.124;18.116;2024-03-02T10:51:49;7.75;;;3.55;;
84682;SDS011;74905;44.124;18.116;2024-03-02T10:54:15;5.78;;;2.30;;
84682;SDS011;74905;44.124;18.116;2024-03-02T10:56:41;2.28;;;1.70;;
84682;SDS011;74905;44.124;18.116;2024-03-02T11:02:03;4.97;;;2.33;;
84682;SDS011;74905;44.124;18.116;2024-03-02T11:04:30;2.92;;;2.17;;
84682;SDS011;74905;44.124;18.116;2024-03-02T11:07:00;6.20;;;2.00;;
84682;SDS011;74905;44.124;18.116;2024-03-02T11:09:29;5.82;;;1.88;;
84682;SDS011;74905;44.124;18.116;2024-03-02T11:14:48;4.25;;;1.98;;
84682;SDS011;74905;44.124;18.116;2024-03-02T11:17:17;7.80;;;1.90;;
84682;SDS011;74905;44.124;18.116;2024-03-02T11:19:43;4.05;;;2.10;;
84682;SDS011;74905;44.124;18.116;2024-03-02T11:22:11;5.35;;;1.98;;
84682;SDS011;74905;44.124;18.116;2024-03-02T11:24:37;7.00;;;2.88;;
84682;SDS011;74905;44.124;18.116;2024-03-02T11:27:04;4.93;;;2.17;;
84682;SDS011;74905;44.124;18.116;2024-03-02T11:32:04;8.52;;;3.00;;
84682;SDS011;74905;44.124;18.116;2024-03-02T11:34:32;6.72;;;2.20;;
84682;SDS011;74905;44.124;18.116;2024-03-02T11:36:58;8.98;;;4.70;;
84682;SDS011;74905;44.124;18.116;2024-03-02T11:39:27;3.85;;;2.60;;
84682;SDS011;74905;44.124;18.116;2024-03-02T11:41:53;8.50;;;4.32;;
84682;SDS011;74905;44.124;18.116;2024-03-02T11:44:20;7.63;;;3.58;;
84682;SDS011;74905;44.124;18.116;2024-03-02T11:46:47;8.05;;;4.82;;
84682;SDS011;74905;44.124;18.116;2024-03-02T11:52:03;4.93;;;2.67;;
84682;SDS011;74905;44.124;18.116;2024-03-02T11:54:30;7.03;;;4.10;;
84682;SDS011;74905;44.124;18.116;2024-03-02T11:57:00;13.55;;;7.20;;
84682;SDS011;74905;44.124;18.116;2024-03-02T11:59:29;11.13;;;6.40;;
84682;SDS011;74905;44.124;18.116;2024-03-02T12:01:55;6.40;;;3.00;;
84682;SDS011;74905;44.124;18.116;2024-03-02T12:06:55;12.23;;;5.80;;
84682;SDS011;74905;44.124;18.116;2024-03-02T12:09:25;7.43;;;3.33;;
84682;SDS011;74905;44.124;18.116;2024-03-02T12:12:05;11.20;;;5.10;;
84682;SDS011;74905;44.124;18.116;2024-03-02T12:14:31;20.83;;;11.38;;
84682;SDS011;74905;44.124;18.116;2024-03-02T12:16:58;7.90;;;4.93;;
84682;SDS011;74905;44.124;18.116;2024-03-02T12:19:25;9.10;;;3.10;;
84682;SDS011;74905;44.124;18.116;2024-03-02T12:21:52;4.75;;;2.30;;
84682;SDS011;74905;44.124;18.116;2024-03-02T12:24:18;6.28;;;3.08;;
84682;SDS011;74905;44.124;18.116;2024-03-02T12:26:44;8.50;;;2.60;;
84682;SDS011;74905;44.124;18.116;2024-03-02T12:29:10;4.22;;;2.60;;
84682;SDS011;74905;44.124;18.116;2024-03-02T12:31:36;5.60;;;2.30;;
84682;SDS011;74905;44.124;18.116;2024-03-02T12:34:02;5.43;;;1.25;;
84682;SDS011;74905;44.124;18.116;2024-03-02T12:36:29;4.60;;;1.23;;
84682;SDS011;74905;44.124;18.116;2024-03-02T12:38:55;3.30;;;1.20;;
84682;SDS011;74905;44.124;18.116;2024-03-02T12:41:20;6.90;;;1.50;;
84682;SDS011;74905;44.124;18.116;2024-03-02T12:43:46;2.80;;;0.90;;
84682;SDS011;74905;44.124;18.116;2024-03-02T12:46:11;5.53;;;0.98;;
84682;SDS011;74905;44.124;18.116;2024-03-02T12:48:37;2.45;;;1.10;;
84682;SDS011;74905;44.124;18.116;2024-03-02T12:51:06;3.80;;;1.15;;
84682;SDS011;74905;44.124;18.116;2024-03-02T12:53:32;4.53;;;1.42;;
84682;SDS011;74905;44.124;18.116;2024-03-02T12:55:57;2.67;;;1.50;;
84682;SDS011;74905;44.124;18.116;2024-03-02T12:58:23;1.92;;;1.00;;
84682;SDS011;74905;44.124;18.116;2024-03-02T13:00:49;5.18;;;1.17;;
84682;SDS011;74905;44.124;18.116;2024-03-02T13:03:14;2.72;;;1.00;;
84682;SDS011;74905;44.124;18.116;2024-03-02T13:05:48;2.47;;;1.27;;
84682;SDS011;74905;44.124;18.116;2024-03-02T13:08:15;4.05;;;1.25;;
84682;SDS011;74905;44.124;18.116;2024-03-02T13:10:40;11.55;;;5.72;;
84682;SDS011;74905;44.124;18.116;2024-03-02T13:13:06;4.05;;;1.90;;
84682;SDS011;74905;44.124;18.116;2024-03-02T13:15:32;6.35;;;2.05;;
84682;SDS011;74905;44.124;18.116;2024-03-02T13:17:58;4.53;;;1.40;;
84682;SDS011;74905;44.124;18.116;2024-03-02T13:20:29;2.55;;;1.35;;
84682;SDS011;74905;44.124;18.116;2024-03-02T13:22:57;3.58;;;1.30;;
84682;SDS011;74905;44.124;18.116;2024-03-02T13:25:22;4.18;;;1.58;;
84682;SDS011;74905;44.124;18.116;2024-03-02T13:27:48;5.22;;;1.77;;
84682;SDS011;74905;44.124;18.116;2024-03-02T13:30:13;4.00;;;1.65;;
84682;SDS011;74905;44.124;18.116;2024-03-02T13:32:39;4.05;;;2.15;;
84682;SDS011;74905;44.124;18.116;2024-03-02T13:35:05;5.18;;;2.00;;
84682;SDS011;74905;44.124;18.116;2024-03-02T13:37:30;4.95;;;2.10;;
84682;SDS011;74905;44.124;18.116;2024-03-02T13:39:56;3.75;;;1.55;;
84682;SDS011;74905;44.124;18.116;2024-03-02T13:42:21;4.03;;;2.40;;
84682;SDS011;74905;44.124;18.116;2024-03-02T13:44:47;5.47;;;1.67;;
84682;SDS011;74905;44.124;18.116;2024-03-02T13:47:15;4.65;;;1.52;;
84682;SDS011;74905;44.124;18.116;2024-03-02T13:49:40;7.13;;;1.80;;
84682;SDS011;74905;44.124;18.116;2024-03-02T13:52:10;4.60;;;1.30;;
84682;SDS011;74905;44.124;18.116;2024-03-02T13:54:38;5.40;;;1.85;;
84682;SDS011;74905;44.124;18.116;2024-03-02T13:57:07;4.93;;;2.05;;
84682;SDS011;74905;44.124;18.116;2024-03-02T13:59:34;5.30;;;1.40;;
84682;SDS011;74905;44.124;18.116;2024-03-02T14:02:01;7.03;;;1.73;;
84682;SDS011;74905;44.124;18.116;2024-03-02T14:04:29;7.32;;;2.20;;
84682;SDS011;74905;44.124;18.116;2024-03-02T14:06:56;12.73;;;4.63;;
84682;SDS011;74905;44.124;18.116;2024-03-02T14:09:22;8.02;;;3.45;;
84682;SDS011;74905;44.124;18.116;2024-03-02T14:11:49;12.30;;;5.47;;
84682;SDS011;74905;44.124;18.116;2024-03-02T14:14:16;14.25;;;6.72;;
84682;SDS011;74905;44.124;18.116;2024-03-02T14:16:42;8.25;;;2.33;;
84682;SDS011;74905;44.124;18.116;2024-03-02T14:19:07;9.45;;;4.18;;
84682;SDS011;74905;44.124;18.116;2024-03-02T14:21:34;6.50;;;3.10;;
84682;SDS011;74905;44.124;18.116;2024-03-02T14:24:01;5.05;;;2.70;;
84682;SDS011;74905;44.124;18.116;2024-03-02T14:26:27;10.50;;;3.40;;
84682;SDS011;74905;44.124;18.116;2024-03-02T14:28:53;9.05;;;2.60;;
84682;SDS011;74905;44.124;18.116;2024-03-02T14:31:19;10.45;;;4.50;;
84682;SDS011;74905;44.124;18.116;2024-03-02T14:33:45;9.40;;;2.95;;